createdAt,value
2018-02-12T00:00:42.334Z,2.57
2018-02-12T00:03:09.984Z,2.53
2018-02-12T00:05:37.517Z,2.50
2018-02-12T00:08:05.601Z,2.52
2018-02-12T00:10:33.120Z,2.48
2018-02-12T00:13:00.670Z,2.47
2018-02-12T00:15:28.251Z,2.50
2018-02-12T00:17:55.798Z,2.47
2018-02-12T00:20:23.455Z,2.53
2018-02-12T00:22:51.127Z,2.45
2018-02-12T00:25:18.683Z,2.49
2018-02-12T00:27:46.259Z,2.51
2018-02-12T00:30:13.766Z,2.46
2018-02-12T00:32:41.291Z,2.47
2018-02-12T00:35:08.818Z,2.52
2018-02-12T00:37:36.348Z,2.51
2018-02-12T00:40:03.940Z,2.55
2018-02-12T00:42:31.475Z,2.47
2018-02-12T00:44:59.026Z,2.50
2018-02-12T00:47:26.528Z,2.45
2018-02-12T00:49:54.082Z,2.39
2018-02-12T00:52:21.616Z,2.35
2018-02-12T00:54:49.187Z,2.33
2018-02-12T00:57:16.687Z,2.39
2018-02-12T00:59:44.181Z,2.31
2018-02-12T01:02:11.739Z,2.25
2018-02-12T01:04:39.266Z,2.24
2018-02-12T01:07:06.796Z,2.29
2018-02-12T01:09:34.299Z,2.13
2018-02-12T01:12:01.851Z,2.24
2018-02-12T01:14:29.456Z,2.10
2018-02-12T01:16:57.022Z,2.14
2018-02-12T01:19:24.530Z,2.09
2018-02-12T01:21:52.134Z,2.05
2018-02-12T01:24:19.638Z,2.02
2018-02-12T01:26:47.160Z,2.11
2018-02-12T01:29:14.717Z,2.10
2018-02-12T01:31:42.218Z,2.03
2018-02-12T01:34:09.770Z,2.13
2018-02-12T01:36:37.279Z,2.18
2018-02-12T01:39:05.850Z,2.18
2018-02-12T01:41:33.358Z,2.25
2018-02-12T01:44:00.911Z,2.25
2018-02-12T01:46:28.433Z,2.28
2018-02-12T01:48:56.113Z,2.20
2018-02-12T01:51:23.636Z,2.11
2018-02-12T01:53:51.140Z,2.06
2018-02-12T01:56:18.799Z,2.03
2018-02-12T01:58:46.318Z,2.02
2018-02-12T02:01:13.862Z,2.01
2018-02-12T02:03:41.469Z,2.02
2018-02-12T02:06:09.027Z,2.04
2018-02-12T02:08:36.552Z,1.94
2018-02-12T02:11:04.104Z,1.93
2018-02-12T02:13:31.622Z,2.00
2018-02-12T02:15:59.264Z,1.91
2018-02-12T02:18:26.778Z,1.86
2018-02-12T02:20:54.312Z,1.96
2018-02-12T02:23:21.865Z,1.89
2018-02-12T02:25:49.366Z,1.85
2018-02-12T02:28:16.920Z,1.78
2018-02-12T02:30:44.445Z,1.86
2018-02-12T02:33:11.975Z,1.79
2018-02-12T02:35:39.536Z,1.77
2018-02-12T02:38:07.198Z,1.75
2018-02-12T02:40:34.732Z,1.59
2018-02-12T02:43:02.236Z,1.73
2018-02-12T02:45:29.889Z,1.55
2018-02-12T02:47:57.410Z,1.57
2018-02-12T02:50:24.940Z,1.70
2018-02-12T02:52:52.446Z,1.68
2018-02-12T02:55:19.995Z,1.61
2018-02-12T02:57:47.522Z,1.57
2018-02-12T03:00:15.129Z,1.55
2018-02-12T03:02:42.651Z,1.50
2018-02-12T03:05:10.357Z,1.48
2018-02-12T03:07:37.856Z,1.37
2018-02-12T03:10:06.288Z,1.41
2018-02-12T03:12:33.835Z,1.47
2018-02-12T03:15:01.363Z,1.38
2018-02-12T03:17:28.932Z,1.35
2018-02-12T03:19:56.517Z,1.32
2018-02-12T03:22:24.069Z,1.40
2018-02-12T03:24:51.646Z,1.29
2018-02-12T03:27:19.191Z,1.33
2018-02-12T03:29:46.725Z,1.27
2018-02-12T03:32:14.231Z,1.26
2018-02-12T03:34:41.884Z,1.19
2018-02-12T03:37:09.440Z,1.20
2018-02-12T03:39:37.104Z,1.30
2018-02-12T03:42:04.668Z,1.29
2018-02-12T03:44:32.214Z,1.27
2018-02-12T03:46:59.713Z,1.25
2018-02-12T03:49:27.248Z,1.28
2018-02-12T03:51:54.901Z,1.30
2018-02-12T03:54:22.499Z,1.33
2018-02-12T03:56:50.114Z,1.22
2018-02-12T03:59:17.630Z,1.32
2018-02-12T04:01:45.166Z,1.32
2018-02-12T04:04:12.809Z,1.24
2018-02-12T04:06:40.463Z,1.24
2018-02-12T04:09:08.019Z,1.23
2018-02-12T04:11:36.467Z,1.23
2018-02-12T04:14:03.969Z,1.20
2018-02-12T04:16:31.520Z,1.22
2018-02-12T04:18:59.076Z,1.17
2018-02-12T04:21:26.674Z,1.16
2018-02-12T04:23:54.196Z,1.15
2018-02-12T04:26:21.703Z,1.13
2018-02-12T04:28:49.255Z,1.12
2018-02-12T04:31:16.780Z,1.05
2018-02-12T04:33:44.335Z,1.05
2018-02-12T04:36:11.890Z,1.10
2018-02-12T04:38:39.448Z,1.06
2018-02-12T04:41:06.970Z,1.08
2018-02-12T04:43:34.518Z,1.15
2018-02-12T04:46:02.014Z,1.19
2018-02-12T04:48:29.594Z,1.26
2018-02-12T04:50:57.126Z,1.14
2018-02-12T04:53:24.807Z,1.16
2018-02-12T04:55:52.330Z,1.27
2018-02-12T04:58:19.924Z,1.29
2018-02-12T05:00:47.482Z,1.12
2018-02-12T05:03:15.045Z,1.05
2018-02-12T05:05:42.615Z,1.10
2018-02-12T05:08:10.168Z,1.10
2018-02-12T05:10:37.745Z,1.06
2018-02-12T05:13:05.325Z,1.04
2018-02-12T05:15:32.899Z,0.99
2018-02-12T05:18:00.422Z,1.20
2018-02-12T05:20:27.979Z,1.03
2018-02-12T05:22:55.505Z,1.09
2018-02-12T05:25:23.085Z,1.14
2018-02-12T05:27:50.640Z,1.12
2018-02-12T05:30:18.302Z,1.08
2018-02-12T05:32:45.939Z,1.11
2018-02-12T05:35:13.441Z,1.16
2018-02-12T05:37:40.996Z,1.27
2018-02-12T05:40:08.549Z,1.24
2018-02-12T05:42:36.917Z,0.96
2018-02-12T05:45:04.476Z,1.21
2018-02-12T05:47:32.026Z,1.37
2018-02-12T05:49:59.531Z,1.34
2018-02-12T05:52:27.078Z,1.30
2018-02-12T05:54:54.615Z,1.27
2018-02-12T05:57:22.161Z,1.31
2018-02-12T05:59:49.714Z,1.27
2018-02-12T06:02:17.217Z,1.32
2018-02-12T06:04:44.770Z,1.27
2018-02-12T06:07:12.595Z,1.22
2018-02-12T06:09:40.142Z,1.24
2018-02-12T06:12:08.025Z,1.30
2018-02-12T06:14:35.573Z,1.18
2018-02-12T06:17:03.100Z,0.99
2018-02-12T06:19:30.678Z,1.03
2018-02-12T06:21:58.187Z,1.05
2018-02-12T06:24:25.711Z,1.10
2018-02-12T06:26:53.258Z,1.03
2018-02-12T06:29:20.850Z,1.05
2018-02-12T06:31:48.410Z,0.94
2018-02-12T06:34:15.945Z,1.09
2018-02-12T06:36:43.843Z,0.89
2018-02-12T06:39:11.346Z,0.81
2018-02-12T06:41:38.904Z,0.93
2018-02-12T06:44:06.530Z,0.78
2018-02-12T06:46:34.222Z,0.76
2018-02-12T06:49:01.783Z,0.78
2018-02-12T06:51:29.409Z,0.80
2018-02-12T06:53:57.065Z,0.68
2018-02-12T06:56:24.617Z,0.79
2018-02-12T06:58:52.167Z,0.87
2018-02-12T07:01:19.694Z,0.69
2018-02-12T07:03:47.521Z,0.77
2018-02-12T07:06:15.025Z,0.76
2018-02-12T07:08:42.627Z,0.97
2018-02-12T07:11:10.171Z,0.86
2018-02-12T07:13:37.980Z,0.96
2018-02-12T07:16:05.510Z,0.98
2018-02-12T07:18:33.058Z,0.97
2018-02-12T07:21:00.633Z,0.94
2018-02-12T07:23:28.162Z,0.96
2018-02-12T07:25:55.694Z,0.94
2018-02-12T07:28:23.218Z,0.99
2018-02-12T07:30:50.770Z,0.94
2018-02-12T07:33:18.313Z,0.87
2018-02-12T07:35:45.852Z,0.89
2018-02-12T07:38:13.439Z,0.88
2018-02-12T07:40:40.975Z,0.93
2018-02-12T07:43:09.111Z,0.86
2018-02-12T07:45:36.811Z,0.81
2018-02-12T07:48:04.434Z,0.92
2018-02-12T07:50:31.992Z,0.83
2018-02-12T07:52:59.515Z,0.90
2018-02-12T07:55:27.019Z,0.77
2018-02-12T07:57:54.623Z,0.86
2018-02-12T08:00:22.184Z,1.01
2018-02-12T08:02:53.762Z,1.07
2018-02-12T08:05:21.625Z,0.97
2018-02-12T08:07:49.180Z,0.98
2018-02-12T08:10:16.682Z,1.03
2018-02-12T08:12:44.254Z,0.95
2018-02-12T08:15:11.763Z,0.98
2018-02-12T08:17:39.589Z,1.09
2018-02-12T08:20:10.646Z,1.08
2018-02-12T08:22:39.043Z,1.05
2018-02-12T08:25:06.596Z,1.12
2018-02-12T08:27:34.122Z,1.12
2018-02-12T08:30:02.300Z,1.23
2018-02-12T08:32:30.030Z,1.28
2018-02-12T08:34:57.579Z,1.24
2018-02-12T08:37:25.212Z,1.25
2018-02-12T08:39:52.763Z,1.17
2018-02-12T08:42:22.172Z,1.26
2018-02-12T08:44:49.928Z,1.37
2018-02-12T08:47:18.882Z,1.45
2018-02-12T08:49:46.419Z,1.53
2018-02-12T08:52:16.534Z,1.54
2018-02-12T08:54:44.373Z,1.50
2018-02-12T08:57:11.924Z,1.53
2018-02-12T08:59:39.790Z,1.21
2018-02-12T09:02:07.337Z,1.10
2018-02-12T09:04:34.854Z,1.08
2018-02-12T09:07:02.387Z,1.18
2018-02-12T09:09:29.910Z,1.28
2018-02-12T09:11:57.439Z,1.29
2018-02-12T09:14:24.967Z,1.25
2018-02-12T09:16:52.519Z,1.31
2018-02-12T09:19:20.042Z,1.39
2018-02-12T09:21:48.548Z,1.59
2018-02-12T09:24:16.074Z,1.61
2018-02-12T09:26:43.601Z,1.64
2018-02-12T09:29:11.152Z,1.58
2018-02-12T09:31:38.708Z,1.67
2018-02-12T09:34:09.754Z,1.84
2018-02-12T09:36:37.488Z,1.81
2018-02-12T09:39:05.090Z,1.85
2018-02-12T09:41:32.737Z,1.85
2018-02-12T09:44:00.268Z,1.95
2018-02-12T09:46:27.999Z,2.17
2018-02-12T09:48:55.593Z,1.87
2018-02-12T09:51:23.102Z,2.15
2018-02-12T09:53:51.252Z,2.08
2018-02-12T09:56:18.880Z,2.12
2018-02-12T09:58:46.481Z,2.00
2018-02-12T10:01:14.010Z,2.07
2018-02-12T10:03:41.552Z,2.10
2018-02-12T10:06:10.042Z,2.23
2018-02-12T10:08:37.593Z,2.11
2018-02-12T10:11:05.253Z,2.00
2018-02-12T10:13:32.812Z,2.11
2018-02-12T10:16:00.474Z,2.20
2018-02-12T10:18:27.996Z,2.24
2018-02-12T10:20:57.962Z,2.22
2018-02-12T10:23:28.931Z,2.28
2018-02-12T10:25:59.106Z,2.25
2018-02-12T10:28:30.206Z,2.34
2018-02-12T10:31:00.466Z,2.36
2018-02-12T10:33:31.417Z,2.52
2018-02-12T10:36:02.053Z,2.60
2018-02-12T10:38:32.918Z,2.49
2018-02-12T10:41:02.873Z,2.54
2018-02-12T10:43:33.199Z,2.63
2018-02-12T10:46:03.893Z,2.57
2018-02-12T10:48:33.681Z,2.59
2018-02-12T10:51:04.531Z,2.48
2018-02-12T10:53:34.848Z,2.53
2018-02-12T10:56:04.557Z,2.77
2018-02-12T10:58:35.236Z,3.08
2018-02-12T11:01:04.111Z,3.09
2018-02-12T11:03:34.050Z,2.89
2018-02-12T11:06:03.739Z,2.70
2018-02-12T11:08:32.774Z,2.80
2018-02-12T11:11:01.801Z,2.89
2018-02-12T11:13:30.861Z,2.90
2018-02-12T11:15:59.958Z,3.10
2018-02-12T11:18:29.837Z,3.30
2018-02-12T11:20:58.875Z,3.53
2018-02-12T11:23:27.725Z,3.41
2018-02-12T11:25:58.388Z,3.31
2018-02-12T11:28:28.561Z,3.42
2018-02-12T11:30:58.931Z,3.29
2018-02-12T11:33:28.946Z,3.11
2018-02-12T11:35:59.094Z,3.18
2018-02-12T11:38:29.342Z,3.10
2018-02-12T11:40:59.420Z,3.09
2018-02-12T11:43:29.592Z,3.14
2018-02-12T11:46:00.500Z,3.24
2018-02-12T11:48:29.906Z,3.40
2018-02-12T11:51:00.741Z,3.68
2018-02-12T11:53:31.904Z,3.49
2018-02-12T11:56:03.019Z,3.53
2018-02-12T11:58:34.047Z,3.79
2018-02-12T12:01:04.202Z,3.92
2018-02-12T12:03:34.009Z,3.83
2018-02-12T12:06:04.420Z,3.55
2018-02-12T12:08:34.946Z,3.42
2018-02-12T12:11:04.934Z,3.17
2018-02-12T12:13:35.360Z,3.33
2018-02-12T12:16:05.064Z,3.28
2018-02-12T12:18:35.304Z,3.33
2018-02-12T12:21:06.271Z,3.21
2018-02-12T12:23:36.371Z,3.29
2018-02-12T12:26:06.262Z,3.33
2018-02-12T12:28:33.890Z,3.42
2018-02-12T12:31:01.490Z,3.53
2018-02-12T12:33:28.994Z,4.07
2018-02-12T12:35:56.550Z,3.54
2018-02-12T12:38:24.181Z,3.57
2018-02-12T12:40:52.442Z,3.82
2018-02-12T12:43:21.608Z,3.69
2018-02-12T12:45:49.868Z,3.96
2018-02-12T12:48:18.249Z,3.87
2018-02-12T12:50:46.489Z,3.75
2018-02-12T12:53:14.794Z,3.67
2018-02-12T12:55:43.089Z,3.76
2018-02-12T12:58:11.347Z,3.68
2018-02-12T13:00:40.343Z,3.90
2018-02-12T13:03:08.676Z,4.11
2018-02-12T13:05:36.908Z,4.08
2018-02-12T13:08:05.460Z,3.77
2018-02-12T13:10:33.747Z,4.21
2018-02-12T13:13:04.460Z,3.90
2018-02-12T13:15:35.135Z,3.94
2018-02-12T13:18:05.915Z,4.28
2018-02-12T13:20:37.539Z,4.20
2018-02-12T13:23:08.079Z,4.11
2018-02-12T13:25:40.137Z,3.99
2018-02-12T13:28:10.728Z,3.96
2018-02-12T13:30:41.495Z,3.80
2018-02-12T13:33:12.038Z,3.35
2018-02-12T13:35:42.604Z,3.43
2018-02-12T13:38:12.662Z,3.60
2018-02-12T13:40:43.457Z,3.68
2018-02-12T13:43:15.138Z,3.85
2018-02-12T13:45:45.206Z,3.77
2018-02-12T13:48:15.138Z,3.85
2018-02-12T13:50:44.957Z,3.56
2018-02-12T13:53:14.126Z,3.72
2018-02-12T13:55:44.438Z,3.63
2018-02-12T13:58:14.815Z,4.01
2018-02-12T14:00:45.034Z,4.08
2018-02-12T14:03:15.555Z,4.42
2018-02-12T14:05:45.557Z,4.12
2018-02-12T14:08:16.580Z,4.40
2018-02-12T14:10:46.643Z,4.69
2018-02-12T14:13:17.194Z,4.58
2018-02-12T14:15:47.368Z,4.28
2018-02-12T14:18:17.851Z,4.04
2018-02-12T14:20:48.583Z,3.98
2018-02-12T14:23:19.026Z,3.91
2018-02-12T14:25:50.125Z,4.02
2018-02-12T14:28:20.949Z,3.83
2018-02-12T14:30:51.364Z,3.79
2018-02-12T14:33:22.234Z,3.92
2018-02-12T14:35:52.435Z,4.01
2018-02-12T14:38:22.499Z,4.32
2018-02-12T14:40:52.430Z,4.36
2018-02-12T14:43:22.420Z,4.21
2018-02-12T14:45:52.402Z,4.00
2018-02-12T14:48:22.270Z,4.01
2018-02-12T14:50:51.767Z,3.92
2018-02-12T14:53:20.675Z,3.81
2018-02-12T14:55:51.379Z,3.83
2018-02-12T14:58:21.602Z,3.75
2018-02-12T15:00:52.409Z,3.89
2018-02-12T15:03:22.585Z,3.98
2018-02-12T15:05:56.095Z,4.05
2018-02-12T15:08:27.761Z,3.99
2018-02-12T15:10:57.414Z,4.10
2018-02-12T15:13:27.965Z,4.17
2018-02-12T15:15:59.605Z,4.19
2018-02-12T15:18:30.329Z,3.97
2018-02-12T15:21:00.403Z,3.88
2018-02-12T15:23:31.326Z,3.72
2018-02-12T15:26:03.779Z,3.79
2018-02-12T15:28:33.115Z,3.70
2018-02-12T15:31:04.316Z,3.56
2018-02-12T15:33:35.445Z,3.67
2018-02-12T15:36:06.290Z,3.76
2018-02-12T15:38:35.723Z,3.81
2018-02-12T15:41:04.295Z,3.93
2018-02-12T15:43:35.027Z,3.88
2018-02-12T15:46:06.315Z,4.01
2018-02-12T15:48:37.260Z,3.93
2018-02-12T15:51:08.106Z,3.91
2018-02-12T15:53:39.153Z,3.92
2018-02-12T15:56:09.844Z,3.78
2018-02-12T15:58:39.966Z,3.72
2018-02-12T16:01:12.161Z,3.67
2018-02-12T16:03:42.397Z,3.58
2018-02-12T16:06:12.920Z,3.40
2018-02-12T16:08:44.180Z,3.32
2018-02-12T16:11:14.924Z,3.35
2018-02-12T16:13:46.508Z,3.38
2018-02-12T16:16:17.696Z,3.25
2018-02-12T16:18:48.525Z,3.36
2018-02-12T16:21:19.078Z,3.29
2018-02-12T16:23:52.040Z,3.21
2018-02-12T16:26:22.358Z,3.09
2018-02-12T16:28:53.456Z,3.04
2018-02-12T16:31:24.815Z,2.99
2018-02-12T16:33:56.273Z,2.92
2018-02-12T16:36:26.841Z,2.96
2018-02-12T16:38:58.449Z,3.03
2018-02-12T16:41:28.968Z,3.10
2018-02-12T16:44:00.276Z,2.90
2018-02-12T16:46:30.391Z,2.90
2018-02-12T16:49:02.327Z,2.82
2018-02-12T16:51:32.940Z,2.81
2018-02-12T16:54:04.465Z,2.76
2018-02-12T16:56:36.782Z,2.70
2018-02-12T16:59:07.393Z,2.63
2018-02-12T17:01:37.918Z,2.67
2018-02-12T17:04:08.238Z,2.70
2018-02-12T17:06:38.819Z,2.72
2018-02-12T17:09:09.756Z,2.75
2018-02-12T17:11:41.489Z,2.50
2018-02-12T17:14:13.391Z,2.27
2018-02-12T17:16:43.555Z,2.33
2018-02-12T17:19:14.634Z,2.33
2018-02-12T17:21:44.417Z,2.27
2018-02-12T17:24:16.066Z,2.23
2018-02-12T17:26:46.471Z,1.99
2018-02-12T17:29:17.464Z,1.94
2018-02-12T17:31:48.445Z,1.92
2018-02-12T17:34:18.654Z,2.02
2018-02-12T17:36:49.302Z,2.06
2018-02-12T17:39:19.878Z,1.95
2018-02-12T17:41:51.926Z,2.01
2018-02-12T17:44:23.060Z,1.99
2018-02-12T17:46:53.880Z,1.90
2018-02-12T17:49:22.980Z,1.81
2018-02-12T17:51:51.466Z,2.08
2018-02-12T17:54:19.067Z,2.13
2018-02-12T17:56:48.484Z,1.91
2018-02-12T17:59:23.028Z,1.91
2018-02-12T18:01:51.632Z,2.19
2018-02-12T18:04:20.841Z,2.07
2018-02-12T18:06:49.524Z,2.05
2018-02-12T18:09:17.799Z,2.08
2018-02-12T18:11:48.730Z,1.93
2018-02-12T18:14:17.244Z,1.95
2018-02-12T18:16:45.588Z,1.95
2018-02-12T18:19:13.835Z,1.90
2018-02-12T18:21:43.844Z,1.91
2018-02-12T18:24:12.097Z,1.93
2018-02-12T18:26:44.306Z,1.81
2018-02-12T18:29:13.465Z,1.77
2018-02-12T18:31:41.813Z,1.76
2018-02-12T18:34:18.421Z,1.78
2018-02-12T18:36:50.056Z,1.92
2018-02-12T18:39:22.107Z,2.06
2018-02-12T18:41:55.560Z,2.11
2018-02-12T18:44:29.838Z,2.05
2018-02-12T18:47:04.910Z,1.77
2018-02-12T18:49:37.262Z,1.77
2018-02-12T18:52:10.090Z,1.69
2018-02-12T18:54:40.805Z,1.47
2018-02-12T18:57:12.757Z,1.36
2018-02-12T18:59:45.872Z,1.34
2018-02-12T19:02:19.661Z,1.25
2018-02-12T19:04:50.202Z,1.16
2018-02-12T19:07:19.796Z,0.86
2018-02-12T19:09:51.527Z,0.92
2018-02-12T19:12:21.334Z,0.89
2018-02-12T19:14:49.047Z,0.89
2018-02-12T19:17:16.842Z,0.59
2018-02-12T19:19:44.370Z,0.67
2018-02-12T19:22:11.923Z,0.65
2018-02-12T19:24:39.451Z,0.57
2018-02-12T19:27:07.003Z,0.63
2018-02-12T19:29:34.536Z,0.62
2018-02-12T19:32:02.107Z,0.47
2018-02-12T19:34:29.659Z,0.41
2018-02-12T19:36:57.186Z,0.49
2018-02-12T19:39:24.762Z,0.35
2018-02-12T19:41:52.318Z,0.41
2018-02-12T19:44:19.871Z,0.44
2018-02-12T19:46:47.420Z,0.30
2018-02-12T19:49:14.972Z,0.33
2018-02-12T19:51:42.502Z,0.25
2018-02-12T19:54:10.050Z,0.23
2018-02-12T19:56:37.578Z,0.27
2018-02-12T19:59:05.135Z,0.17
2018-02-12T20:01:32.681Z,0.24
2018-02-12T20:04:04.315Z,0.18
2018-02-12T20:06:33.272Z,0.07
2018-02-12T20:09:00.814Z,0.11
2018-02-12T20:11:28.366Z,0.09
2018-02-12T20:13:55.897Z,-0.17
2018-02-12T20:16:24.825Z,0.00
2018-02-12T20:18:52.428Z,0.15
2018-02-12T20:21:19.983Z,0.06
2018-02-12T20:23:47.510Z,-0.01
2018-02-12T20:26:15.085Z,-0.08
2018-02-12T20:28:42.609Z,-0.11
2018-02-12T20:31:10.210Z,0.00
2018-02-12T20:33:37.741Z,-0.06
2018-02-12T20:36:05.315Z,-0.17
2018-02-12T20:38:32.866Z,-0.11
2018-02-12T20:41:00.398Z,-0.16
2018-02-12T20:43:27.951Z,-0.19
2018-02-12T20:45:55.519Z,-0.17
2018-02-12T20:48:23.078Z,-0.51
2018-02-12T20:50:50.632Z,-0.40
2018-02-12T20:53:19.051Z,-0.36
2018-02-12T20:55:46.611Z,-0.36
2018-02-12T20:58:14.245Z,-0.34
2018-02-12T21:00:41.795Z,-0.31
2018-02-12T21:03:09.315Z,-0.36
2018-02-12T21:05:36.902Z,-0.38
2018-02-12T21:08:04.418Z,-0.39
2018-02-12T21:10:31.977Z,-0.52
2018-02-12T21:12:59.581Z,-0.54
2018-02-12T21:15:27.170Z,-0.48
2018-02-12T21:18:01.090Z,-0.45
2018-02-12T21:20:38.158Z,-0.44
2018-02-12T21:23:11.037Z,-0.66
2018-02-12T21:25:44.730Z,-0.55
2018-02-12T21:28:16.962Z,-0.59
2018-02-12T21:30:50.824Z,-0.53
2018-02-12T21:33:22.568Z,-0.60
2018-02-12T21:35:54.452Z,-0.57
2018-02-12T21:38:27.173Z,-0.54
2018-02-12T21:41:00.691Z,-0.66
2018-02-12T21:43:31.309Z,-0.66
2018-02-12T21:46:01.381Z,-0.64
2018-02-12T21:48:29.045Z,-0.65
2018-02-12T21:50:57.333Z,-0.69
2018-02-12T21:53:24.913Z,-0.72
2018-02-12T21:55:52.540Z,-0.71
2018-02-12T21:58:25.393Z,-0.80
2018-02-12T22:00:55.702Z,-0.80
2018-02-12T22:03:24.010Z,-0.79
2018-02-12T22:05:53.493Z,-0.85
2018-02-12T22:08:21.673Z,-1.04
2018-02-12T22:10:49.617Z,-0.95
2018-02-12T22:13:17.856Z,-0.91
2018-02-12T22:15:46.103Z,-0.88
2018-02-12T22:18:13.810Z,-0.92
2018-02-12T22:20:44.412Z,-0.95
2018-02-12T22:23:13.190Z,-0.95
2018-02-12T22:25:40.743Z,-0.94
2018-02-12T22:28:08.276Z,-0.98
2018-02-12T22:30:35.847Z,-1.08
2018-02-12T22:33:03.373Z,-1.05
2018-02-12T22:35:30.951Z,-1.09
2018-02-12T22:37:58.479Z,-1.15
2018-02-12T22:40:26.080Z,-1.20
2018-02-12T22:42:53.667Z,-1.09
2018-02-12T22:45:21.188Z,-1.16
2018-02-12T22:47:49.355Z,-1.21
2018-02-12T22:50:16.892Z,-1.16
2018-02-12T22:52:44.446Z,-1.12
2018-02-12T22:55:13.067Z,-1.16
2018-02-12T22:57:42.769Z,-1.13
2018-02-12T23:00:11.154Z,-1.14
2018-02-12T23:02:38.702Z,-1.36
2018-02-12T23:05:06.304Z,-1.22
2018-02-12T23:07:33.915Z,-1.19
2018-02-12T23:10:02.011Z,-1.22
2018-02-12T23:12:30.358Z,-1.28
2018-02-12T23:14:58.056Z,-1.35
2018-02-12T23:17:26.130Z,-1.32
2018-02-12T23:19:54.382Z,-1.37
2018-02-12T23:22:22.422Z,-1.37
2018-02-12T23:24:50.127Z,-1.43
2018-02-12T23:27:17.686Z,-1.56
2018-02-12T23:29:47.137Z,-1.56
2018-02-12T23:32:15.365Z,-1.46
2018-02-12T23:34:43.107Z,-1.43
2018-02-12T23:37:10.833Z,-1.42
2018-02-12T23:39:38.858Z,-1.44
2018-02-12T23:42:06.635Z,-1.45
2018-02-12T23:44:34.337Z,-1.64
2018-02-12T23:47:02.557Z,-1.46
2018-02-12T23:49:30.421Z,-1.41
2018-02-12T23:51:58.095Z,-1.57
2018-02-12T23:54:26.566Z,-1.62
2018-02-12T23:56:54.146Z,-1.95
2018-02-12T23:59:22.201Z,-1.72
